sensor_id;sensor_type;location;lat;lon;timestamp;pressure;altitude;pressure_sealevel;temperature;humidity
64841;BME280;51307;52.162;7.560;2023-05-16T00:02:03;101101.44;;;12.16;61.19
64841;BME280;51307;52.162;7.560;2023-05-16T00:04:30;101094.97;;;11.92;61.87
64841;BME280;51307;52.162;7.560;2023-05-16T00:06:57;101103.06;;;12.00;61.79
64841;BME280;51307;52.162;7.560;2023-05-16T00:09:22;101108.78;;;11.71;62.49
64841;BME280;51307;52.162;7.560;2023-05-16T00:11:48;101100.66;;;11.89;62.58
64841;BME280;51307;52.162;7.560;2023-05-16T00:14:14;101115.56;;;11.57;63.15
64841;BME280;51307;52.162;7.560;2023-05-16T00:16:40;101103.84;;;11.58;63.29
64841;BME280;51307;52.162;7.560;2023-05-16T00:19:06;101109.63;;;11.71;63.14
64841;BME280;51307;52.162;7.560;2023-05-16T00:21:32;101127.56;;;11.00;64.13
64841;BME280;51307;52.162;7.560;2023-05-16T00:23:57;101119.19;;;11.21;63.41
64841;BME280;51307;52.162;7.560;2023-05-16T00:26:23;101114.88;;;11.28;63.38
64841;BME280;51307;52.162;7.560;2023-05-16T00:28:48;101122.97;;;11.37;62.43
64841;BME280;51307;52.162;7.560;2023-05-16T00:31:14;101128.13;;;11.04;63.43
64841;BME280;51307;52.162;7.560;2023-05-16T00:33:39;101128.97;;;11.57;61.63
64841;BME280;51307;52.162;7.560;2023-05-16T00:36:05;101136.59;;;11.43;61.77
64841;BME280;51307;52.162;7.560;2023-05-16T00:38:30;101138.72;;;11.32;61.73
64841;BME280;51307;52.162;7.560;2023-05-16T00:40:56;101136.59;;;11.17;61.68
64841;BME280;51307;52.162;7.560;2023-05-16T00:43:21;101135.91;;;11.41;61.16
64841;BME280;51307;52.162;7.560;2023-05-16T00:45:47;101140.16;;;11.26;61.54
64841;BME280;51307;52.162;7.560;2023-05-16T00:48:13;101143.16;;;11.23;61.07
64841;BME280;51307;52.162;7.560;2023-05-16T00:50:40;101148.56;;;10.69;61.93
64841;BME280;51307;52.162;7.560;2023-05-16T00:53:06;101140.09;;;11.18;60.94
64841;BME280;51307;52.162;7.560;2023-05-16T00:55:31;101150.47;;;10.76;61.21
64841;BME280;51307;52.162;7.560;2023-05-16T00:57:57;101145.22;;;11.11;60.87
64841;BME280;51307;52.162;7.560;2023-05-16T01:00:24;101153.50;;;10.64;62.13
64841;BME280;51307;52.162;7.560;2023-05-16T01:02:50;101140.00;;;10.83;61.54
64841;BME280;51307;52.162;7.560;2023-05-16T01:05:18;101143.13;;;10.97;61.47
64841;BME280;51307;52.162;7.560;2023-05-16T01:07:44;101147.69;;;10.68;62.11
64841;BME280;51307;52.162;7.560;2023-05-16T01:10:10;101142.25;;;10.14;63.30
64841;BME280;51307;52.162;7.560;2023-05-16T01:15:33;101144.84;;;10.52;62.31
64841;BME280;51307;52.162;7.560;2023-05-16T01:18:09;101148.91;;;10.56;62.14
64841;BME280;51307;52.162;7.560;2023-05-16T01:20:56;101161.00;;;10.60;62.42
64841;BME280;51307;52.162;7.560;2023-05-16T01:23:48;101152.94;;;10.14;63.05
64841;BME280;51307;52.162;7.560;2023-05-16T01:26:21;101163.16;;;10.56;62.66
64841;BME280;51307;52.162;7.560;2023-05-16T01:28:49;101168.66;;;10.55;62.41
64841;BME280;51307;52.162;7.560;2023-05-16T01:31:15;101159.56;;;10.38;62.97
64841;BME280;51307;52.162;7.560;2023-05-16T01:33:41;101161.53;;;10.36;62.43
64841;BME280;51307;52.162;7.560;2023-05-16T01:36:16;101162.00;;;10.59;61.34
64841;BME280;51307;52.162;7.560;2023-05-16T01:44:03;101178.91;;;10.59;60.73
64841;BME280;51307;52.162;7.560;2023-05-16T01:46:37;101176.44;;;10.38;61.66
64841;BME280;51307;52.162;7.560;2023-05-16T01:49:15;101181.94;;;10.37;60.98
64841;BME280;51307;52.162;7.560;2023-05-16T01:51:44;101191.03;;;10.26;61.68
64841;BME280;51307;52.162;7.560;2023-05-16T01:54:17;101184.78;;;10.35;61.42
64841;BME280;51307;52.162;7.560;2023-05-16T01:56:50;101190.75;;;10.57;60.85
64841;BME280;51307;52.162;7.560;2023-05-16T01:59:19;101190.44;;;10.60;60.54
64841;BME280;51307;52.162;7.560;2023-05-16T02:01:46;101195.75;;;10.70;60.06
64841;BME280;51307;52.162;7.560;2023-05-16T02:04:11;101193.50;;;10.37;60.73
64841;BME280;51307;52.162;7.560;2023-05-16T02:06:42;101185.03;;;10.70;59.86
64841;BME280;51307;52.162;7.560;2023-05-16T02:09:08;101188.81;;;10.49;60.84
64841;BME280;51307;52.162;7.560;2023-05-16T02:11:33;101190.41;;;10.04;60.97
64841;BME280;51307;52.162;7.560;2023-05-16T02:13:59;101193.91;;;10.15;60.63
64841;BME280;51307;52.162;7.560;2023-05-16T02:16:25;101201.03;;;10.24;60.23
64841;BME280;51307;52.162;7.560;2023-05-16T02:18:50;101197.19;;;9.99;61.16
64841;BME280;51307;52.162;7.560;2023-05-16T02:21:16;101207.44;;;9.56;60.87
64841;BME280;51307;52.162;7.560;2023-05-16T02:23:41;101194.50;;;9.61;60.78
64841;BME280;51307;52.162;7.560;2023-05-16T02:26:07;101202.09;;;10.03;60.72
64841;BME280;51307;52.162;7.560;2023-05-16T02:28:32;101206.88;;;9.52;61.23
64841;BME280;51307;52.162;7.560;2023-05-16T02:30:59;101200.22;;;9.76;60.38
64841;BME280;51307;52.162;7.560;2023-05-16T02:33:25;101199.66;;;9.72;60.97
64841;BME280;51307;52.162;7.560;2023-05-16T02:35:52;101208.88;;;9.50;61.13
64841;BME280;51307;52.162;7.560;2023-05-16T02:38:17;101202.78;;;9.68;60.57
64841;BME280;51307;52.162;7.560;2023-05-16T02:40:48;101212.50;;;9.49;61.10
64841;BME280;51307;52.162;7.560;2023-05-16T02:43:14;101213.50;;;9.58;60.28
64841;BME280;51307;52.162;7.560;2023-05-16T02:45:39;101212.06;;;9.54;60.46
64841;BME280;51307;52.162;7.560;2023-05-16T02:48:05;101208.34;;;9.27;61.11
64841;BME280;51307;52.162;7.560;2023-05-16T02:50:31;101210.44;;;9.23;61.28
64841;BME280;51307;52.162;7.560;2023-05-16T02:52:56;101221.81;;;9.45;61.02
64841;BME280;51307;52.162;7.560;2023-05-16T02:55:24;101219.28;;;9.24;60.96
64841;BME280;51307;52.162;7.560;2023-05-16T02:57:50;101219.28;;;9.43;60.96
64841;BME280;51307;52.162;7.560;2023-05-16T03:00:16;101231.59;;;9.74;60.58
64841;BME280;51307;52.162;7.560;2023-05-16T03:02:42;101229.97;;;9.24;61.49
64841;BME280;51307;52.162;7.560;2023-05-16T03:05:08;101230.66;;;9.36;61.34
64841;BME280;51307;52.162;7.560;2023-05-16T03:07:35;101227.00;;;9.07;62.04
64841;BME280;51307;52.162;7.560;2023-05-16T03:10:01;101228.84;;;9.07;61.87
64841;BME280;51307;52.162;7.560;2023-05-16T03:12:27;101229.13;;;9.14;61.74
64841;BME280;51307;52.162;7.560;2023-05-16T03:14:52;101238.09;;;8.93;61.48
64841;BME280;51307;52.162;7.560;2023-05-16T03:17:18;101234.19;;;9.26;61.31
64841;BME280;51307;52.162;7.560;2023-05-16T03:19:44;101238.25;;;9.21;61.12
64841;BME280;51307;52.162;7.560;2023-05-16T03:22:09;101239.25;;;9.00;61.36
64841;BME280;51307;52.162;7.560;2023-05-16T03:24:35;101241.19;;;8.98;61.41
64841;BME280;51307;52.162;7.560;2023-05-16T03:27:00;101248.22;;;9.19;60.99
64841;BME280;51307;52.162;7.560;2023-05-16T03:29:28;101251.59;;;9.21;60.72
64841;BME280;51307;52.162;7.560;2023-05-16T03:31:53;101254.38;;;8.90;61.20
64841;BME280;51307;52.162;7.560;2023-05-16T03:34:19;101257.06;;;9.00;61.32
64841;BME280;51307;52.162;7.560;2023-05-16T03:36:47;101250.56;;;8.83;61.22
64841;BME280;51307;52.162;7.560;2023-05-16T03:39:12;101260.75;;;9.18;60.14
64841;BME280;51307;52.162;7.560;2023-05-16T03:41:38;101255.50;;;8.97;60.94
64841;BME280;51307;52.162;7.560;2023-05-16T03:44:03;101264.25;;;8.99;60.98
64841;BME280;51307;52.162;7.560;2023-05-16T03:46:29;101274.03;;;8.89;60.25
64841;BME280;51307;52.162;7.560;2023-05-16T03:48:54;101273.94;;;8.59;61.02
64841;BME280;51307;52.162;7.560;2023-05-16T03:51:20;101269.28;;;8.92;60.71
64841;BME280;51307;52.162;7.560;2023-05-16T03:53:45;101279.13;;;9.02;59.98
64841;BME280;51307;52.162;7.560;2023-05-16T03:56:11;101276.38;;;8.72;60.67
64841;BME280;51307;52.162;7.560;2023-05-16T03:58:36;101282.78;;;8.60;61.19
64841;BME280;51307;52.162;7.560;2023-05-16T04:01:02;101279.25;;;8.50;60.89
64841;BME280;51307;52.162;7.560;2023-05-16T04:03:28;101280.91;;;8.41;61.52
64841;BME280;51307;52.162;7.560;2023-05-16T04:05:54;101279.13;;;8.20;61.62
64841;BME280;51307;52.162;7.560;2023-05-16T04:08:21;101289.53;;;8.64;60.83
64841;BME280;51307;52.162;7.560;2023-05-16T04:10:46;101290.34;;;8.86;60.09
64841;BME280;51307;52.162;7.560;2023-05-16T04:13:12;101293.06;;;8.03;61.81
64841;BME280;51307;52.162;7.560;2023-05-16T04:15:37;101300.84;;;8.47;60.92
64841;BME280;51307;52.162;7.560;2023-05-16T04:18:03;101303.34;;;8.07;61.31
64841;BME280;51307;52.162;7.560;2023-05-16T04:20:29;101296.16;;;8.29;61.05
64841;BME280;51307;52.162;7.560;2023-05-16T04:22:55;101304.50;;;8.46;60.62
64841;BME280;51307;52.162;7.560;2023-05-16T04:25:20;101302.91;;;8.33;60.64
64841;BME280;51307;52.162;7.560;2023-05-16T04:27:46;101301.47;;;8.29;60.82
64841;BME280;51307;52.162;7.560;2023-05-16T04:30:11;101312.47;;;8.15;61.16
64841;BME280;51307;52.162;7.560;2023-05-16T04:32:38;101316.44;;;8.20;60.96
64841;BME280;51307;52.162;7.560;2023-05-16T04:35:04;101311.06;;;8.11;61.18
64841;BME280;51307;52.162;7.560;2023-05-16T04:37:29;101314.81;;;8.29;60.67
64841;BME280;51307;52.162;7.560;2023-05-16T04:39:56;101323.38;;;8.64;59.79
64841;BME280;51307;52.162;7.560;2023-05-16T04:42:21;101324.41;;;8.41;60.08
64841;BME280;51307;52.162;7.560;2023-05-16T04:44:47;101318.09;;;8.42;60.26
64841;BME280;51307;52.162;7.560;2023-05-16T04:47:12;101325.56;;;8.49;60.27
64841;BME280;51307;52.162;7.560;2023-05-16T04:49:38;101334.72;;;8.25;60.36
64841;BME280;51307;52.162;7.560;2023-05-16T04:52:05;101329.31;;;8.46;60.19
64841;BME280;51307;52.162;7.560;2023-05-16T04:54:32;101334.59;;;8.05;60.75
64841;BME280;51307;52.162;7.560;2023-05-16T04:56:58;101340.38;;;8.11;60.61
64841;BME280;51307;52.162;7.560;2023-05-16T04:59:23;101337.97;;;8.07;60.63
64841;BME280;51307;52.162;7.560;2023-05-16T05:01:49;101340.47;;;7.99;60.87
64841;BME280;51307;52.162;7.560;2023-05-16T05:04:15;101342.44;;;8.07;60.59
64841;BME280;51307;52.162;7.560;2023-05-16T05:06:42;101345.09;;;8.28;60.45
64841;BME280;51307;52.162;7.560;2023-05-16T05:09:08;101361.31;;;8.46;59.42
64841;BME280;51307;52.162;7.560;2023-05-16T05:11:34;101353.28;;;8.36;59.83
64841;BME280;51307;52.162;7.560;2023-05-16T05:14:00;101368.59;;;8.34;59.74
64841;BME280;51307;52.162;7.560;2023-05-16T05:16:26;101361.16;;;8.38;59.86
64841;BME280;51307;52.162;7.560;2023-05-16T05:18:52;101354.97;;;8.37;60.05
64841;BME280;51307;52.162;7.560;2023-05-16T05:21:17;101364.38;;;8.11;60.27
64841;BME280;51307;52.162;7.560;2023-05-16T05:23:44;101353.91;;;8.50;59.40
64841;BME280;51307;52.162;7.560;2023-05-16T05:26:10;101375.53;;;8.47;59.54
64841;BME280;51307;52.162;7.560;2023-05-16T05:28:36;101368.78;;;8.42;59.15
64841;BME280;51307;52.162;7.560;2023-05-16T05:31:03;101372.84;;;8.47;59.69
64841;BME280;51307;52.162;7.560;2023-05-16T05:33:29;101368.31;;;8.68;59.22
64841;BME280;51307;52.162;7.560;2023-05-16T05:35:55;101365.94;;;8.65;59.21
64841;BME280;51307;52.162;7.560;2023-05-16T05:38:21;101384.84;;;8.62;58.98
64841;BME280;51307;52.162;7.560;2023-05-16T05:40:46;101372.53;;;8.61;59.09
64841;BME280;51307;52.162;7.560;2023-05-16T05:43:12;101376.78;;;8.73;59.17
64841;BME280;51307;52.162;7.560;2023-05-16T05:45:37;101380.94;;;8.66;59.33
64841;BME280;51307;52.162;7.560;2023-05-16T05:48:03;101382.56;;;8.79;58.94
64841;BME280;51307;52.162;7.560;2023-05-16T05:50:29;101379.38;;;8.85;58.62
64841;BME280;51307;52.162;7.560;2023-05-16T05:52:54;101393.00;;;8.61;58.88
64841;BME280;51307;52.162;7.560;2023-05-16T05:55:20;101397.22;;;8.63;59.29
64841;BME280;51307;52.162;7.560;2023-05-16T05:57:46;101393.66;;;8.84;58.67
64841;BME280;51307;52.162;7.560;2023-05-16T06:00:12;101395.63;;;8.82;59.20
64841;BME280;51307;52.162;7.560;2023-05-16T06:02:37;101399.19;;;8.61;59.15
64841;BME280;51307;52.162;7.560;2023-05-16T06:05:03;101395.41;;;8.95;58.95
64841;BME280;51307;52.162;7.560;2023-05-16T06:07:29;101408.53;;;8.76;59.00
64841;BME280;51307;52.162;7.560;2023-05-16T06:09:54;101409.75;;;8.94;59.00
64841;BME280;51307;52.162;7.560;2023-05-16T06:12:20;101400.13;;;8.81;59.04
64841;BME280;51307;52.162;7.560;2023-05-16T06:14:45;101408.66;;;9.06;58.41
64841;BME280;51307;52.162;7.560;2023-05-16T06:17:11;101414.81;;;8.75;58.57
64841;BME280;51307;52.162;7.560;2023-05-16T06:19:36;101414.28;;;9.03;58.59
64841;BME280;51307;52.162;7.560;2023-05-16T06:22:02;101416.81;;;9.04;58.80
64841;BME280;51307;52.162;7.560;2023-05-16T06:24:27;101411.56;;;8.93;58.81
64841;BME280;51307;52.162;7.560;2023-05-16T06:26:54;101416.50;;;8.98;58.45
64841;BME280;51307;52.162;7.560;2023-05-16T06:29:20;101412.78;;;9.20;58.25
64841;BME280;51307;52.162;7.560;2023-05-16T06:31:45;101412.84;;;9.59;57.02
64841;BME280;51307;52.162;7.560;2023-05-16T06:34:11;101414.41;;;9.62;57.00
64841;BME280;51307;52.162;7.560;2023-05-16T06:36:37;101408.78;;;9.45;56.27
64841;BME280;51307;52.162;7.560;2023-05-16T06:39:02;101416.41;;;9.59;56.35
64841;BME280;51307;52.162;7.560;2023-05-16T06:41:29;101413.44;;;9.53;56.22
64841;BME280;51307;52.162;7.560;2023-05-16T06:43:55;101429.81;;;9.29;56.25
64841;BME280;51307;52.162;7.560;2023-05-16T06:46:20;101429.03;;;9.57;55.95
64841;BME280;51307;52.162;7.560;2023-05-16T06:48:46;101424.84;;;9.65;55.59
64841;BME280;51307;52.162;7.560;2023-05-16T06:51:11;101425.69;;;9.75;54.46
64841;BME280;51307;52.162;7.560;2023-05-16T06:53:37;101434.94;;;10.20;54.23
64841;BME280;51307;52.162;7.560;2023-05-16T06:56:03;101427.50;;;10.14;53.09
64841;BME280;51307;52.162;7.560;2023-05-16T06:58:28;101432.16;;;10.12;51.72
64841;BME280;51307;52.162;7.560;2023-05-16T07:00:54;101441.75;;;9.95;52.17
64841;BME280;51307;52.162;7.560;2023-05-16T07:03:19;101442.53;;;10.34;51.49
64841;BME280;51307;52.162;7.560;2023-05-16T07:05:45;101430.75;;;10.07;50.92
64841;BME280;51307;52.162;7.560;2023-05-16T07:08:10;101428.78;;;9.80;51.76
64841;BME280;51307;52.162;7.560;2023-05-16T07:10:37;101440.47;;;10.28;51.73
64841;BME280;51307;52.162;7.560;2023-05-16T07:13:02;101439.19;;;10.32;51.50
64841;BME280;51307;52.162;7.560;2023-05-16T07:15:29;101441.84;;;9.83;51.82
64841;BME280;51307;52.162;7.560;2023-05-16T07:17:55;101433.97;;;9.91;52.10
64841;BME280;51307;52.162;7.560;2023-05-16T07:20:21;101433.44;;;9.88;51.68
64841;BME280;51307;52.162;7.560;2023-05-16T07:22:47;101446.06;;;10.25;50.86
64841;BME280;51307;52.162;7.560;2023-05-16T07:25:12;101454.53;;;9.91;51.00
64841;BME280;51307;52.162;7.560;2023-05-16T07:27:39;101446.50;;;10.30;50.52
64841;BME280;51307;52.162;7.560;2023-05-16T07:30:07;101447.34;;;10.50;50.57
64841;BME280;51307;52.162;7.560;2023-05-16T07:32:33;101462.56;;;10.10;50.34
64841;BME280;51307;52.162;7.560;2023-05-16T07:34:59;101453.81;;;10.18;49.42
64841;BME280;51307;52.162;7.560;2023-05-16T07:37:24;101447.75;;;10.26;49.82
64841;BME280;51307;52.162;7.560;2023-05-16T07:39:50;101450.16;;;10.49;49.31
64841;BME280;51307;52.162;7.560;2023-05-16T07:42:15;101449.47;;;10.27;47.98
64841;BME280;51307;52.162;7.560;2023-05-16T07:44:41;101452.97;;;10.37;48.67
64841;BME280;51307;52.162;7.560;2023-05-16T07:47:07;101460.31;;;10.25;48.17
64841;BME280;51307;52.162;7.560;2023-05-16T07:49:32;101458.19;;;10.19;48.12
64841;BME280;51307;52.162;7.560;2023-05-16T07:51:58;101453.84;;;9.99;46.93
64841;BME280;51307;52.162;7.560;2023-05-16T07:54:23;101445.53;;;10.21;46.71
64841;BME280;51307;52.162;7.560;2023-05-16T07:56:49;101454.13;;;10.45;46.89
64841;BME280;51307;52.162;7.560;2023-05-16T07:59:17;101448.84;;;10.63;47.52
64841;BME280;51307;52.162;7.560;2023-05-16T08:01:43;101433.31;;;11.14;46.84
64841;BME280;51307;52.162;7.560;2023-05-16T08:04:08;101449.75;;;11.01;46.77
64841;BME280;51307;52.162;7.560;2023-05-16T08:06:34;101448.66;;;10.84;47.68
64841;BME280;51307;52.162;7.560;2023-05-16T08:08:59;101455.22;;;10.99;47.33
64841;BME280;51307;52.162;7.560;2023-05-16T08:11:25;101459.16;;;10.67;47.42
64841;BME280;51307;52.162;7.560;2023-05-16T08:13:51;101465.91;;;10.71;46.62
64841;BME280;51307;52.162;7.560;2023-05-16T08:16:16;101465.91;;;10.42;47.82
64841;BME280;51307;52.162;7.560;2023-05-16T08:18:41;101461.75;;;10.87;47.12
64841;BME280;51307;52.162;7.560;2023-05-16T08:21:07;101457.63;;;10.92;47.29
64841;BME280;51307;52.162;7.560;2023-05-16T08:23:33;101455.13;;;10.91;47.16
64841;BME280;51307;52.162;7.560;2023-05-16T08:25:59;101465.34;;;10.58;46.89
64841;BME280;51307;52.162;7.560;2023-05-16T08:28:24;101449.41;;;10.66;47.05
64841;BME280;51307;52.162;7.560;2023-05-16T08:30:50;101455.00;;;10.83;46.42
64841;BME280;51307;52.162;7.560;2023-05-16T08:33:15;101464.13;;;11.00;45.97
64841;BME280;51307;52.162;7.560;2023-05-16T08:35:42;101453.97;;;10.93;45.28
64841;BME280;51307;52.162;7.560;2023-05-16T08:38:08;101463.47;;;10.68;44.99
64841;BME280;51307;52.162;7.560;2023-05-16T08:40:33;101446.47;;;10.59;45.48
64841;BME280;51307;52.162;7.560;2023-05-16T08:42:59;101450.13;;;10.58;45.94
64841;BME280;51307;52.162;7.560;2023-05-16T08:45:26;101453.41;;;11.00;45.13
64841;BME280;51307;52.162;7.560;2023-05-16T08:47:54;101455.78;;;10.26;46.46
64841;BME280;51307;52.162;7.560;2023-05-16T08:50:21;101459.56;;;10.33;46.57
64841;BME280;51307;52.162;7.560;2023-05-16T08:52:50;101443.88;;;10.77;46.02
64841;BME280;51307;52.162;7.560;2023-05-16T08:55:18;101458.53;;;10.83;44.27
64841;BME280;51307;52.162;7.560;2023-05-16T08:57:44;101442.38;;;11.03;44.18
64841;BME280;51307;52.162;7.560;2023-05-16T09:00:11;101448.25;;;11.16;43.84
64841;BME280;51307;52.162;7.560;2023-05-16T09:02:41;101444.97;;;10.94;44.55
64841;BME280;51307;52.162;7.560;2023-05-16T09:05:12;101436.44;;;11.37;43.76
64841;BME280;51307;52.162;7.560;2023-05-16T09:07:38;101452.25;;;11.30;44.26
64841;BME280;51307;52.162;7.560;2023-05-16T09:10:08;101462.38;;;11.08;43.29
64841;BME280;51307;52.162;7.560;2023-05-16T09:12:34;101446.13;;;11.20;43.30
64841;BME280;51307;52.162;7.560;2023-05-16T09:15:04;101455.34;;;11.35;42.55
64841;BME280;51307;52.162;7.560;2023-05-16T09:17:39;101458.44;;;11.58;42.54
64841;BME280;51307;52.162;7.560;2023-05-16T09:20:16;101455.72;;;11.22;42.47
64841;BME280;51307;52.162;7.560;2023-05-16T09:22:53;101456.00;;;11.93;42.21
64841;BME280;51307;52.162;7.560;2023-05-16T09:25:25;101454.56;;;11.71;41.04
64841;BME280;51307;52.162;7.560;2023-05-16T09:27:55;101443.50;;;12.02;40.38
64841;BME280;51307;52.162;7.560;2023-05-16T09:30:26;101441.34;;;12.05;40.17
64841;BME280;51307;52.162;7.560;2023-05-16T09:32:53;101438.97;;;11.84;40.59
64841;BME280;51307;52.162;7.560;2023-05-16T09:35:20;101433.72;;;11.83;41.28
64841;BME280;51307;52.162;7.560;2023-05-16T09:37:46;101431.72;;;11.49;41.64
64841;BME280;51307;52.162;7.560;2023-05-16T09:40:13;101437.56;;;11.62;41.58
64841;BME280;51307;52.162;7.560;2023-05-16T09:42:42;101434.47;;;11.57;41.94
64841;BME280;51307;52.162;7.560;2023-05-16T09:45:12;101444.03;;;12.05;42.32
64841;BME280;51307;52.162;7.560;2023-05-16T09:47:39;101450.94;;;12.26;41.96
64841;BME280;51307;52.162;7.560;2023-05-16T09:50:13;101457.22;;;11.99;41.33
64841;BME280;51307;52.162;7.560;2023-05-16T09:52:39;101447.28;;;11.63;40.79
64841;BME280;51307;52.162;7.560;2023-05-16T09:55:07;101435.31;;;12.03;41.07
64841;BME280;51307;52.162;7.560;2023-05-16T09:57:36;101437.00;;;12.04;41.03
64841;BME280;51307;52.162;7.560;2023-05-16T10:00:04;101445.97;;;11.95;40.16
64841;BME280;51307;52.162;7.560;2023-05-16T10:02:33;101446.81;;;11.68;40.12
64841;BME280;51307;52.162;7.560;2023-05-16T10:05:00;101445.28;;;11.65;40.21
64841;BME280;51307;52.162;7.560;2023-05-16T10:07:27;101441.91;;;11.91;40.66
64841;BME280;51307;52.162;7.560;2023-05-16T10:09:57;101447.53;;;11.70;41.48
64841;BME280;51307;52.162;7.560;2023-05-16T10:12:29;101431.25;;;11.99;41.46
64841;BME280;51307;52.162;7.560;2023-05-16T10:14:56;101427.53;;;12.00;41.34
64841;BME280;51307;52.162;7.560;2023-05-16T10:17:24;101435.25;;;12.39;41.14
64841;BME280;51307;52.162;7.560;2023-05-16T10:19:53;101435.75;;;12.17;39.48
64841;BME280;51307;52.162;7.560;2023-05-16T10:22:21;101432.88;;;12.36;39.42
64841;BME280;51307;52.162;7.560;2023-05-16T10:24:57;101430.06;;;12.20;38.80
64841;BME280;51307;52.162;7.560;2023-05-16T10:27:25;101431.47;;;12.06;39.77
64841;BME280;51307;52.162;7.560;2023-05-16T10:29:51;101436.56;;;11.81;39.83
64841;BME280;51307;52.162;7.560;2023-05-16T10:32:17;101447.44;;;11.80;40.57
64841;BME280;51307;52.162;7.560;2023-05-16T10:34:44;101455.50;;;11.80;39.27
64841;BME280;51307;52.162;7.560;2023-05-16T10:37:10;101446.38;;;11.72;38.39
64841;BME280;51307;52.162;7.560;2023-05-16T10:39:37;101432.94;;;11.54;38.15
64841;BME280;51307;52.162;7.560;2023-05-16T10:42:03;101435.72;;;11.63;38.04
64841;BME280;51307;52.162;7.560;2023-05-16T10:44:31;101427.19;;;11.95;38.01
64841;BME280;51307;52.162;7.560;2023-05-16T10:46:59;101432.09;;;12.00;37.60
64841;BME280;51307;52.162;7.560;2023-05-16T10:49:26;101430.47;;;11.89;35.99
64841;BME280;51307;52.162;7.560;2023-05-16T10:54:40;101432.31;;;12.06;36.10
64841;BME280;51307;52.162;7.560;2023-05-16T10:57:16;101442.38;;;12.04;36.26
64841;BME280;51307;52.162;7.560;2023-05-16T10:59:47;101431.06;;;12.37;37.04
64841;BME280;51307;52.162;7.560;2023-05-16T11:02:30;101441.06;;;12.53;37.26
64841;BME280;51307;52.162;7.560;2023-05-16T11:05:00;101428.59;;;12.25;37.31
64841;BME280;51307;52.162;7.560;2023-05-16T11:07:34;101424.00;;;12.36;38.03
64841;BME280;51307;52.162;7.560;2023-05-16T11:12:49;101417.00;;;12.69;39.22
64841;BME280;51307;52.162;7.560;2023-05-16T11:15:25;101430.13;;;12.46;39.14
64841;BME280;51307;52.162;7.560;2023-05-16T11:18:14;101440.19;;;12.52;38.94
64841;BME280;51307;52.162;7.560;2023-05-16T11:20:41;101436.41;;;12.63;39.00
64841;BME280;51307;52.162;7.560;2023-05-16T11:25:43;101427.50;;;12.89;39.99
64841;BME280;51307;52.162;7.560;2023-05-16T11:28:12;101432.44;;;13.02;39.53
64841;BME280;51307;52.162;7.560;2023-05-16T11:30:46;101423.88;;;13.06;38.64
64841;BME280;51307;52.162;7.560;2023-05-16T11:33:14;101433.69;;;12.55;37.55
64841;BME280;51307;52.162;7.560;2023-05-16T11:35:41;101417.38;;;12.74;36.75
64841;BME280;51307;52.162;7.560;2023-05-16T11:38:14;101435.28;;;13.00;36.01
64841;BME280;51307;52.162;7.560;2023-05-16T11:40:43;101427.78;;;12.77;35.34
64841;BME280;51307;52.162;7.560;2023-05-16T11:43:09;101416.09;;;12.87;36.21
64841;BME280;51307;52.162;7.560;2023-05-16T11:45:35;101440.22;;;12.78;36.63
64841;BME280;51307;52.162;7.560;2023-05-16T11:48:02;101430.78;;;12.74;36.51
64841;BME280;51307;52.162;7.560;2023-05-16T11:50:28;101440.94;;;12.97;35.78
64841;BME280;51307;52.162;7.560;2023-05-16T11:52:55;101425.50;;;13.25;36.30
64841;BME280;51307;52.162;7.560;2023-05-16T11:55:30;101421.16;;;13.33;35.69
64841;BME280;51307;52.162;7.560;2023-05-16T11:57:58;101422.69;;;13.35;34.82
64841;BME280;51307;52.162;7.560;2023-05-16T12:00:25;101444.81;;;13.21;35.01
64841;BME280;51307;52.162;7.560;2023-05-16T12:02:52;101428.38;;;13.32;34.89
64841;BME280;51307;52.162;7.560;2023-05-16T12:05:20;101425.50;;;13.25;34.79
64841;BME280;51307;52.162;7.560;2023-05-16T12:07:50;101429.09;;;13.08;35.30
64841;BME280;51307;52.162;7.560;2023-05-16T12:10:18;101411.47;;;13.05;35.42
64841;BME280;51307;52.162;7.560;2023-05-16T12:12:45;101431.94;;;13.41;35.82
64841;BME280;51307;52.162;7.560;2023-05-16T12:15:12;101418.56;;;13.15;36.06
64841;BME280;51307;52.162;7.560;2023-05-16T12:17:40;101445.75;;;12.77;35.89
64841;BME280;51307;52.162;7.560;2023-05-16T12:20:08;101442.16;;;12.68;36.62
64841;BME280;51307;52.162;7.560;2023-05-16T12:22:43;101444.69;;;13.04;36.77
64841;BME280;51307;52.162;7.560;2023-05-16T12:27:47;101449.47;;;12.58;37.94
64841;BME280;51307;52.162;7.560;2023-05-16T12:30:16;101455.19;;;12.63;37.87
64841;BME280;51307;52.162;7.560;2023-05-16T12:32:43;101472.78;;;12.57;38.03
64841;BME280;51307;52.162;7.560;2023-05-16T12:35:09;101458.19;;;12.34;37.97
64841;BME280;51307;52.162;7.560;2023-05-16T12:37:36;101456.41;;;12.42;38.66
64841;BME280;51307;52.162;7.560;2023-05-16T12:40:01;101453.84;;;12.59;38.35
64841;BME280;51307;52.162;7.560;2023-05-16T12:42:31;101445.91;;;12.84;38.58
64841;BME280;51307;52.162;7.560;2023-05-16T12:44:57;101445.34;;;12.98;38.96
64841;BME280;51307;52.162;7.560;2023-05-16T12:47:22;101441.47;;;13.27;38.24
64841;BME280;51307;52.162;7.560;2023-05-16T12:49:48;101446.06;;;13.08;37.53
64841;BME280;51307;52.162;7.560;2023-05-16T12:52:17;101440.44;;;13.28;36.98
64841;BME280;51307;52.162;7.560;2023-05-16T12:54:45;101434.88;;;13.21;35.95
64841;BME280;51307;52.162;7.560;2023-05-16T12:57:11;101438.13;;;13.33;35.73
64841;BME280;51307;52.162;7.560;2023-05-16T12:59:36;101423.72;;;13.59;36.02
64841;BME280;51307;52.162;7.560;2023-05-16T13:02:02;101430.44;;;13.47;34.48
64841;BME280;51307;52.162;7.560;2023-05-16T13:04:28;101425.78;;;13.73;34.71
64841;BME280;51307;52.162;7.560;2023-05-16T13:06:54;101449.41;;;13.45;34.86
64841;BME280;51307;52.162;7.560;2023-05-16T13:09:20;101448.47;;;13.62;34.80
64841;BME280;51307;52.162;7.560;2023-05-16T13:11:46;101433.88;;;13.82;35.07